createdAt,value
2018-08-23T00:00:47.527Z,27.46
2018-08-23T00:01:47.622Z,27.50
2018-08-23T00:02:47.621Z,27.45
2018-08-23T00:03:47.748Z,27.39
2018-08-23T00:04:47.727Z,27.42
2018-08-23T00:05:48.001Z,27.38
2018-08-23T00:06:47.749Z,27.39
2018-08-23T00:07:47.784Z,27.46
2018-08-23T00:08:47.813Z,27.45
2018-08-23T00:09:47.906Z,27.45
2018-08-23T00:10:47.919Z,27.42
2018-08-23T00:11:47.910Z,27.39
2018-08-23T00:12:48.268Z,27.35
2018-08-23T00:13:48.098Z,27.34
2018-08-23T00:14:48.015Z,27.39
2018-08-23T00:15:48.097Z,27.45
2018-08-23T00:16:48.151Z,27.39
2018-08-23T00:17:48.169Z,27.45
2018-08-23T00:18:48.233Z,27.39
2018-08-23T00:19:48.538Z,27.42
2018-08-23T00:21:48.303Z,27.40
2018-08-23T00:22:48.334Z,27.28
2018-08-23T00:23:48.320Z,27.25
2018-08-23T00:24:48.353Z,27.28
2018-08-23T00:25:48.399Z,27.34
2018-08-23T00:26:48.728Z,27.30
2018-08-23T00:27:48.458Z,27.21
2018-08-23T00:28:48.544Z,27.24
2018-08-23T00:29:48.582Z,27.18
2018-08-23T00:30:48.561Z,27.16
2018-08-23T00:31:48.649Z,27.16
2018-08-23T00:32:48.632Z,27.16
2018-08-23T00:33:48.981Z,27.03
2018-08-23T00:34:48.701Z,27.05
2018-08-23T00:35:48.736Z,26.94
2018-08-23T00:36:48.822Z,26.98
2018-08-23T00:37:48.854Z,26.98
2018-08-23T00:38:48.840Z,26.94
2018-08-23T00:39:48.878Z,27.01
2018-08-23T00:40:49.220Z,26.93
2018-08-23T00:41:48.951Z,26.90
2018-08-23T00:42:49.035Z,26.93
2018-08-23T00:43:49.060Z,26.88
2018-08-23T00:44:49.043Z,26.88
2018-08-23T00:45:49.130Z,26.86
2018-08-23T00:46:49.118Z,26.86
2018-08-23T00:47:49.458Z,26.81
2018-08-23T00:48:49.184Z,26.83
2018-08-23T00:49:49.264Z,26.84
2018-08-23T00:50:49.261Z,26.75
2018-08-23T00:51:49.287Z,26.73
2018-08-23T00:52:49.368Z,26.69
2018-08-23T00:53:49.401Z,26.60
2018-08-23T00:54:49.696Z,26.64
2018-08-23T00:55:49.424Z,26.59
2018-08-23T00:57:49.540Z,26.47
2018-08-23T00:58:49.573Z,26.44
2018-08-23T00:59:49.557Z,26.28
2018-08-23T01:00:49.895Z,26.29
2018-08-23T01:01:49.626Z,26.23
2018-08-23T01:02:49.710Z,26.24
2018-08-23T01:03:49.747Z,26.23
2018-08-23T01:04:49.732Z,26.23
2018-08-23T01:05:49.828Z,26.13
2018-08-23T01:06:50.098Z,26.13
2018-08-23T01:07:49.887Z,26.01
2018-08-23T01:08:49.920Z,26.00
2018-08-23T01:09:49.904Z,25.94
2018-08-23T01:10:49.937Z,25.90
2018-08-23T01:11:49.966Z,25.97
2018-08-23T01:12:50.300Z,25.91
2018-08-23T01:13:50.094Z,25.98
2018-08-23T01:14:50.123Z,25.82
2018-08-23T01:15:50.105Z,25.81
2018-08-23T01:16:50.136Z,25.76
2018-08-23T01:17:50.221Z,25.78
2018-08-23T01:18:50.207Z,25.76
2018-08-23T01:19:50.546Z,25.74
2018-08-23T01:20:50.277Z,25.67
2018-08-23T01:21:50.308Z,25.79
2018-08-23T01:22:50.394Z,25.67
2018-08-23T01:23:50.379Z,25.66
2018-08-23T01:24:50.408Z,25.64
2018-08-23T01:25:50.498Z,25.72
2018-08-23T01:26:50.787Z,25.61
2018-08-23T01:27:50.565Z,25.61
2018-08-23T01:28:50.550Z,25.56
2018-08-23T01:29:50.631Z,25.56
2018-08-23T01:30:50.611Z,25.46
2018-08-23T01:31:50.647Z,25.45
2018-08-23T01:32:50.731Z,25.41
2018-08-23T01:33:51.022Z,25.44
2018-08-23T01:34:50.799Z,25.39
2018-08-23T01:35:50.784Z,25.45
2018-08-23T01:36:50.810Z,25.41
2018-08-23T01:37:50.845Z,25.45
2018-08-23T01:38:50.879Z,25.41
2018-08-23T01:39:50.969Z,25.41
2018-08-23T01:40:51.252Z,25.49
2018-08-23T01:41:51.031Z,25.53
2018-08-23T01:42:51.019Z,25.54
2018-08-23T01:43:51.052Z,25.53
2018-08-23T01:44:51.134Z,25.56
2018-08-23T01:45:51.164Z,25.59
2018-08-23T01:46:51.150Z,25.56
2018-08-23T01:47:51.481Z,25.53
2018-08-23T01:48:51.217Z,25.54
2018-08-23T01:49:51.262Z,25.54
2018-08-23T01:50:51.336Z,25.56
2018-08-23T01:51:51.316Z,25.54
2018-08-23T01:52:51.350Z,25.54
2018-08-23T01:53:51.438Z,25.54
2018-08-23T01:54:51.727Z,25.54
2018-08-23T01:55:51.500Z,25.54
2018-08-23T01:56:51.483Z,25.53
2018-08-23T01:57:51.571Z,25.51
2018-08-23T01:58:51.552Z,25.49
2018-08-23T01:59:51.584Z,25.51
2018-08-23T02:00:51.663Z,25.49
2018-08-23T02:01:51.945Z,25.48
2018-08-23T02:02:51.676Z,25.45
2018-08-23T02:03:51.715Z,25.42
2018-08-23T02:04:51.747Z,25.42
2018-08-23T02:05:51.784Z,25.31
2018-08-23T02:06:51.866Z,25.23
2018-08-23T02:07:51.845Z,25.34
2018-08-23T02:08:52.177Z,25.29
2018-08-23T02:09:51.961Z,25.20
2018-08-23T02:10:51.936Z,25.20
2018-08-23T02:11:52.022Z,25.22
2018-08-23T02:12:51.999Z,25.24
2018-08-23T02:13:52.075Z,25.22
2018-08-23T02:14:52.068Z,25.22
2018-08-23T02:15:52.389Z,25.19
2018-08-23T02:16:52.176Z,25.24
2018-08-23T02:17:52.205Z,25.23
2018-08-23T02:18:52.183Z,25.17
2018-08-23T02:19:52.284Z,25.23
2018-08-23T02:20:52.247Z,25.14
2018-08-23T02:21:52.326Z,25.20
2018-08-23T02:23:52.645Z,25.17
2018-08-23T02:24:52.375Z,25.26
2018-08-23T02:25:52.456Z,25.24
2018-08-23T02:26:52.434Z,25.24
2018-08-23T02:27:52.484Z,25.16
2018-08-23T02:28:52.553Z,25.09
2018-08-23T02:29:52.525Z,25.09
2018-08-23T02:30:52.556Z,25.02
2018-08-23T02:31:52.588Z,24.99
2018-08-23T02:32:52.620Z,25.02
2018-08-23T02:33:52.704Z,25.05
2018-08-23T02:34:52.735Z,25.01
2018-08-23T02:35:52.711Z,24.99
2018-08-23T02:36:53.049Z,24.92
2018-08-23T02:37:52.826Z,24.97
2018-08-23T02:38:52.854Z,24.89
2018-08-23T02:39:52.847Z,24.86
2018-08-23T02:40:52.915Z,24.87
2018-08-23T02:41:52.952Z,24.83
2018-08-23T02:42:52.981Z,24.80
2018-08-23T02:43:53.263Z,24.93
2018-08-23T02:44:53.059Z,24.87
2018-08-23T02:45:53.073Z,24.87
2018-08-23T02:46:53.099Z,24.82
2018-08-23T02:47:53.134Z,24.86
2018-08-23T02:48:53.112Z,24.79
2018-08-23T02:49:53.452Z,24.90
2018-08-23T02:50:53.241Z,24.75
2018-08-23T02:51:53.255Z,24.75
2018-08-23T02:52:53.244Z,24.77
2018-08-23T02:53:53.324Z,24.71
2018-08-23T02:54:53.301Z,24.75
2018-08-23T02:55:53.734Z,24.74
2018-08-23T02:56:53.414Z,24.74
2018-08-23T02:57:53.444Z,24.56
2018-08-23T02:58:53.418Z,24.61
2018-08-23T02:59:53.503Z,24.64
2018-08-23T03:00:53.485Z,24.56
2018-08-23T03:01:53.817Z,24.46
2018-08-23T03:02:53.549Z,24.44
2018-08-23T03:03:53.577Z,24.37
2018-08-23T03:04:53.658Z,24.39
2018-08-23T03:05:53.683Z,24.37
2018-08-23T03:06:53.665Z,24.31
2018-08-23T03:07:53.696Z,24.31
2018-08-23T03:08:54.036Z,24.27
2018-08-23T03:09:53.761Z,24.30
2018-08-23T03:10:53.836Z,24.16
2018-08-23T03:11:53.821Z,24.14
2018-08-23T03:12:53.855Z,24.12
2018-08-23T03:13:53.929Z,24.16
2018-08-23T03:14:53.907Z,24.14
2018-08-23T03:15:54.238Z,24.12
2018-08-23T03:16:53.980Z,24.23
2018-08-23T03:17:54.060Z,24.18
2018-08-23T03:18:54.083Z,24.15
2018-08-23T03:19:54.112Z,24.15
2018-08-23T03:20:54.095Z,24.27
2018-08-23T03:21:54.178Z,24.12
2018-08-23T03:22:54.457Z,24.18
2018-08-23T03:23:54.186Z,24.08
2018-08-23T03:24:54.264Z,24.24
2018-08-23T03:25:54.292Z,24.09
2018-08-23T03:26:54.278Z,24.09
2018-08-23T03:27:54.362Z,24.09
2018-08-23T03:28:54.335Z,24.02
2018-08-23T03:29:54.716Z,24.08
2018-08-23T03:30:54.549Z,24.11
2018-08-23T03:31:54.424Z,24.06
2018-08-23T03:32:54.460Z,24.11
2018-08-23T03:33:54.536Z,24.11
2018-08-23T03:34:54.570Z,24.08
2018-08-23T03:35:54.602Z,24.06
2018-08-23T03:38:54.946Z,24.06
2018-08-23T03:39:54.670Z,23.97
2018-08-23T03:40:54.756Z,23.97
2018-08-23T03:41:54.779Z,23.97
2018-08-23T03:42:54.815Z,23.97
2018-08-23T03:43:54.795Z,23.97
2018-08-23T03:44:55.129Z,23.82
2018-08-23T03:45:54.900Z,23.82
2018-08-23T03:46:54.928Z,23.92
2018-08-23T03:47:54.914Z,23.89
2018-08-23T03:48:54.940Z,23.89
2018-08-23T03:49:55.029Z,23.92
2018-08-23T03:50:55.005Z,23.92
2018-08-23T03:51:55.382Z,23.92
2018-08-23T03:52:55.066Z,23.81
2018-08-23T03:53:55.093Z,23.93
2018-08-23T03:54:55.130Z,23.89
2018-08-23T03:55:55.161Z,23.89
2018-08-23T03:56:55.232Z,23.86
2018-08-23T03:57:55.274Z,23.77
2018-08-23T03:58:55.597Z,23.79
2018-08-23T03:59:55.327Z,23.75
2018-08-23T04:00:55.309Z,23.71
2018-08-23T04:01:55.337Z,23.71
2018-08-23T04:02:55.417Z,23.69
2018-08-23T04:03:55.398Z,23.69
2018-08-23T04:04:55.425Z,23.68
2018-08-23T04:05:55.772Z,23.69
2018-08-23T04:06:55.535Z,23.72
2018-08-23T04:07:55.573Z,23.67
2018-08-23T04:08:55.551Z,23.68
2018-08-23T04:09:55.624Z,23.69
2018-08-23T04:10:55.606Z,23.69
2018-08-23T04:11:55.667Z,23.72
2018-08-23T04:12:55.965Z,23.72
2018-08-23T04:13:55.753Z,23.81
2018-08-23T04:14:55.781Z,23.74
2018-08-23T04:15:55.759Z,23.74
2018-08-23T04:16:55.790Z,23.74
2018-08-23T04:17:55.865Z,23.72
2018-08-23T04:18:55.902Z,23.75
2018-08-23T04:19:56.176Z,23.71
2018-08-23T04:20:55.904Z,23.68
2018-08-23T04:21:55.999Z,23.72
2018-08-23T04:22:56.046Z,23.67
2018-08-23T04:23:56.050Z,23.68
2018-08-23T04:24:56.029Z,23.72
2018-08-23T04:25:56.115Z,23.67
2018-08-23T04:26:56.441Z,23.62
2018-08-23T04:27:56.119Z,23.64
2018-08-23T04:28:56.203Z,23.59
2018-08-23T04:29:56.180Z,23.62
2018-08-23T04:30:56.263Z,23.62
2018-08-23T04:31:56.237Z,23.62
2018-08-23T04:32:56.276Z,23.59
2018-08-23T04:33:56.603Z,23.62
2018-08-23T04:34:56.376Z,23.67
2018-08-23T04:35:56.362Z,23.63
2018-08-23T04:36:56.457Z,23.57
2018-08-23T04:37:56.526Z,23.57
2018-08-23T04:38:56.454Z,23.56
2018-08-23T04:40:56.560Z,23.57
2018-08-23T04:41:56.897Z,23.57
2018-08-23T04:42:56.574Z,23.64
2018-08-23T04:44:56.632Z,23.63
2018-08-23T04:45:56.706Z,23.59
2018-08-23T04:46:56.736Z,23.63
2018-08-23T04:47:56.718Z,23.57
2018-08-23T04:48:57.050Z,23.63
2018-08-23T04:49:56.778Z,23.57
2018-08-23T04:50:56.861Z,23.57
2018-08-23T04:51:56.887Z,23.60
2018-08-23T04:52:56.920Z,23.57
2018-08-23T04:53:56.951Z,23.60
2018-08-23T04:54:56.935Z,23.68
2018-08-23T04:55:57.264Z,23.63
2018-08-23T04:56:57.042Z,23.60
2018-08-23T04:57:57.065Z,23.68
2018-08-23T04:58:57.046Z,23.60
2018-08-23T04:59:57.082Z,23.68
2018-08-23T05:00:57.116Z,23.64
2018-08-23T05:01:57.188Z,23.69
2018-08-23T05:02:57.467Z,23.77
2018-08-23T05:03:57.231Z,23.77
2018-08-23T05:04:57.231Z,23.67
2018-08-23T05:05:57.256Z,23.74
2018-08-23T05:06:57.348Z,23.77
2018-08-23T05:07:57.321Z,23.74
2018-08-23T05:08:57.351Z,23.79
2018-08-23T05:09:57.680Z,23.78
2018-08-23T05:10:57.410Z,23.71
2018-08-23T05:11:57.485Z,23.77
2018-08-23T05:12:57.464Z,23.71
2018-08-23T05:13:57.548Z,23.79
2018-08-23T05:14:57.528Z,23.84
2018-08-23T05:15:57.558Z,23.92
2018-08-23T05:16:57.901Z,23.92
2018-08-23T05:17:57.667Z,23.86
2018-08-23T05:18:57.698Z,23.89
2018-08-23T05:19:57.678Z,23.97
2018-08-23T05:20:57.704Z,24.08
2018-08-23T05:21:57.742Z,24.15
2018-08-23T05:22:57.818Z,24.12
2018-08-23T05:23:58.099Z,24.23
2018-08-23T05:24:57.827Z,24.15
2018-08-23T05:25:57.910Z,24.30
2018-08-23T05:26:57.888Z,24.31
2018-08-23T05:27:57.977Z,24.34
2018-08-23T05:28:57.942Z,24.41
2018-08-23T05:29:58.328Z,24.51
2018-08-23T05:30:58.006Z,24.56
2018-08-23T05:31:58.042Z,24.64
2018-08-23T05:32:58.120Z,24.67
2018-08-23T05:33:58.106Z,24.56
2018-08-23T05:34:58.131Z,24.75
2018-08-23T05:35:58.454Z,24.77
2018-08-23T05:36:58.234Z,24.82
2018-08-23T05:37:58.272Z,24.86
2018-08-23T05:38:58.301Z,24.87
2018-08-23T05:39:58.276Z,24.89
2018-08-23T05:40:58.310Z,24.93
2018-08-23T05:41:58.635Z,24.97
2018-08-23T05:42:58.367Z,25.07
2018-08-23T05:43:58.452Z,25.02
2018-08-23T05:44:58.493Z,25.09
2018-08-23T05:45:58.463Z,25.11
2018-08-23T05:46:58.495Z,25.20
2018-08-23T05:47:58.523Z,25.17
2018-08-23T05:48:58.900Z,25.22
2018-08-23T05:49:58.630Z,25.29
2018-08-23T05:50:58.665Z,25.19
2018-08-23T05:51:58.642Z,25.22
2018-08-23T05:52:58.671Z,25.27
2018-08-23T05:53:58.750Z,25.35
2018-08-23T05:54:58.733Z,25.39
2018-08-23T05:55:59.073Z,25.48
2018-08-23T05:56:58.792Z,25.38
2018-08-23T05:57:58.870Z,25.39
2018-08-23T05:58:58.910Z,25.41
2018-08-23T05:59:58.885Z,25.44
2018-08-23T06:00:58.970Z,25.44
2018-08-23T06:01:58.994Z,25.54
2018-08-23T06:02:59.273Z,25.51
2018-08-23T06:03:59.005Z,25.53
2018-08-23T06:04:59.038Z,25.57
2018-08-23T06:05:59.114Z,25.63
2018-08-23T06:06:59.148Z,25.60
2018-08-23T06:07:59.134Z,25.66
2018-08-23T06:08:59.162Z,25.67
2018-08-23T06:09:59.489Z,25.59
2018-08-23T06:10:59.221Z,25.69
2018-08-23T06:11:59.299Z,25.66
2018-08-23T06:12:59.283Z,25.64
2018-08-23T06:13:59.426Z,25.67
2018-08-23T06:14:59.343Z,25.75
2018-08-23T06:15:59.422Z,25.67
2018-08-23T06:16:59.759Z,25.82
2018-08-23T06:17:59.492Z,25.76
2018-08-23T06:18:59.465Z,25.76
2018-08-23T06:19:59.492Z,25.86
2018-08-23T06:20:59.538Z,25.86
2018-08-23T06:21:59.612Z,25.81
2018-08-23T06:22:59.637Z,25.86
2018-08-23T06:23:59.924Z,25.86
2018-08-23T06:24:59.666Z,25.91
2018-08-23T06:25:59.684Z,25.94
2018-08-23T06:26:59.761Z,25.93
2018-08-23T06:27:59.744Z,25.94
2018-08-23T06:28:59.788Z,26.00
2018-08-23T06:29:59.854Z,26.00
2018-08-23T06:31:00.188Z,26.00
2018-08-23T06:31:59.917Z,26.04
2018-08-23T06:32:59.985Z,26.01
2018-08-23T06:34:00.035Z,26.08
2018-08-23T06:35:00.033Z,26.04
2018-08-23T06:36:00.038Z,26.04
2018-08-23T06:37:00.071Z,26.12
2018-08-23T06:38:00.348Z,26.13
2018-08-23T06:39:00.140Z,26.09
2018-08-23T06:40:00.167Z,26.21
2018-08-23T06:41:00.156Z,26.17
2018-08-23T06:42:00.171Z,26.23
2018-08-23T06:43:00.207Z,26.13
2018-08-23T06:44:00.287Z,26.17
2018-08-23T06:45:00.624Z,26.27
2018-08-23T06:46:00.339Z,26.23
2018-08-23T06:47:00.339Z,26.20
2018-08-23T06:48:00.357Z,26.21
2018-08-23T06:49:00.423Z,26.23
2018-08-23T06:50:00.479Z,26.21
2018-08-23T06:51:00.522Z,26.28
2018-08-23T06:52:00.819Z,26.31
2018-08-23T06:53:00.518Z,26.29
2018-08-23T06:54:00.547Z,26.29
2018-08-23T06:55:00.659Z,26.34
2018-08-23T06:56:00.624Z,26.31
2018-08-23T06:57:00.651Z,26.31
2018-08-23T06:58:00.734Z,26.36
2018-08-23T06:59:01.234Z,26.36
2018-08-23T07:00:00.790Z,26.35
2018-08-23T07:01:00.819Z,26.36
2018-08-23T07:02:00.806Z,26.28
2018-08-23T07:03:00.897Z,26.38
2018-08-23T07:04:00.985Z,26.44
2018-08-23T07:05:00.890Z,26.47
2018-08-23T07:06:01.274Z,26.44
2018-08-23T07:07:01.037Z,26.47
2018-08-23T07:08:00.979Z,26.44
2018-08-23T07:09:01.018Z,26.51
2018-08-23T07:10:01.044Z,26.47
2018-08-23T07:11:01.127Z,26.46
2018-08-23T07:12:01.108Z,26.57
2018-08-23T07:13:01.514Z,26.59
2018-08-23T07:14:01.227Z,26.59
2018-08-23T07:15:01.253Z,26.57
2018-08-23T07:16:01.283Z,26.59
2018-08-23T07:17:01.336Z,26.53
2018-08-23T07:18:01.476Z,26.59
2018-08-23T07:19:01.787Z,26.59
2018-08-23T07:20:01.432Z,26.60
2018-08-23T07:21:01.460Z,26.59
2018-08-23T07:22:01.474Z,26.64
2018-08-23T07:23:01.510Z,26.59
2018-08-23T07:24:01.480Z,26.66
2018-08-23T07:25:01.570Z,26.65
2018-08-23T07:26:01.740Z,26.65
2018-08-23T07:27:01.583Z,26.61
2018-08-23T07:28:01.661Z,26.69
2018-08-23T07:29:01.638Z,26.66
2018-08-23T07:30:01.770Z,26.73
2018-08-23T07:31:02.006Z,26.68
2018-08-23T07:32:01.739Z,26.75
2018-08-23T07:33:01.846Z,26.73
2018-08-23T07:34:01.793Z,26.72
2018-08-23T07:35:01.830Z,26.73
2018-08-23T07:36:01.885Z,26.76
2018-08-23T07:37:01.937Z,26.75
2018-08-23T07:38:02.228Z,26.76
2018-08-23T07:39:02.005Z,26.76
2018-08-23T07:40:02.150Z,26.81
2018-08-23T07:41:02.139Z,26.79
2018-08-23T07:42:02.096Z,26.73
2018-08-23T07:43:02.175Z,26.87
2018-08-23T07:44:02.226Z,26.78
2018-08-23T07:45:02.440Z,26.87
2018-08-23T07:46:02.221Z,26.81
2018-08-23T07:47:02.572Z,26.86
2018-08-23T07:48:02.290Z,26.84
2018-08-23T07:49:02.331Z,26.87
2018-08-23T07:51:02.330Z,26.88
2018-08-23T07:52:02.664Z,26.96
2018-08-23T07:53:02.459Z,26.83
2018-08-23T07:54:02.478Z,26.86
2018-08-23T07:55:02.531Z,26.83
2018-08-23T07:56:02.502Z,26.86
2018-08-23T07:57:02.573Z,26.86
2018-08-23T07:58:02.610Z,26.86
2018-08-23T07:59:02.932Z,26.87
2018-08-23T08:00:02.628Z,26.90
2018-08-23T08:01:02.810Z,26.98
2018-08-23T08:02:02.740Z,26.91
2018-08-23T08:03:02.759Z,26.90
2018-08-23T08:04:02.739Z,26.94
2018-08-23T08:05:02.826Z,27.01
2018-08-23T08:06:03.162Z,27.03
2018-08-23T08:07:02.880Z,27.03
2018-08-23T08:08:02.918Z,27.03
2018-08-23T08:09:02.915Z,27.05
2018-08-23T08:10:02.932Z,26.97
2018-08-23T08:11:03.008Z,26.98
2018-08-23T08:12:03.043Z,27.01
2018-08-23T08:13:03.321Z,27.05
2018-08-23T08:14:03.111Z,26.97
2018-08-23T08:15:03.225Z,27.02
2018-08-23T08:16:03.176Z,27.11
2018-08-23T08:17:03.160Z,27.05
2018-08-23T08:18:03.228Z,27.05
2018-08-23T08:19:03.216Z,27.08
2018-08-23T08:20:03.296Z,27.11
2018-08-23T08:21:03.466Z,27.08
2018-08-23T08:22:03.375Z,27.06
2018-08-23T08:23:03.393Z,27.01
2018-08-23T08:24:03.424Z,27.05
2018-08-23T08:25:03.415Z,27.18
2018-08-23T08:26:03.788Z,27.08
2018-08-23T08:27:03.637Z,27.11
2018-08-23T08:28:03.500Z,27.21
2018-08-23T08:29:03.534Z,27.21
2018-08-23T08:30:03.613Z,27.11
2018-08-23T08:31:03.647Z,27.12
2018-08-23T08:32:03.684Z,27.16
2018-08-23T08:33:03.977Z,27.15
2018-08-23T08:34:03.744Z,27.21
2018-08-23T08:35:03.732Z,27.16
2018-08-23T08:36:03.809Z,27.13
2018-08-23T08:37:03.789Z,27.23
2018-08-23T08:38:03.867Z,27.27
2018-08-23T08:39:03.914Z,27.21
2018-08-23T08:40:04.181Z,27.16
2018-08-23T08:41:03.971Z,27.21
2018-08-23T08:42:04.023Z,27.27
2018-08-23T08:43:04.022Z,27.28
2018-08-23T08:44:04.047Z,27.31
2018-08-23T08:45:04.039Z,27.31
2018-08-23T08:46:04.387Z,27.33
2018-08-23T08:47:04.150Z,27.35
2018-08-23T08:48:04.134Z,27.33
2018-08-23T08:49:04.176Z,27.25
2018-08-23T08:50:04.261Z,27.30
2018-08-23T08:51:04.280Z,27.30
2018-08-23T08:52:04.624Z,27.25
2018-08-23T08:53:04.352Z,27.28
2018-08-23T08:54:04.386Z,27.40
2018-08-23T08:55:04.414Z,27.42
2018-08-23T08:56:04.400Z,27.39
2018-08-23T08:57:04.498Z,27.43
2018-08-23T08:58:04.510Z,27.31
2018-08-23T08:59:04.548Z,27.39
2018-08-23T09:00:04.530Z,27.40
2018-08-23T09:01:04.605Z,27.38
2018-08-23T09:02:04.588Z,27.38
2018-08-23T09:03:04.658Z,27.39
2018-08-23T09:04:04.967Z,27.48
2018-08-23T09:05:04.746Z,27.45
2018-08-23T09:06:04.760Z,27.43
2018-08-23T09:07:04.751Z,27.42
2018-08-23T09:09:04.868Z,27.40
2018-08-23T09:10:04.903Z,27.39
2018-08-23T09:11:05.238Z,27.46
2018-08-23T09:12:04.915Z,27.43
2018-08-23T09:13:04.983Z,27.35
2018-08-23T09:14:05.016Z,27.39
2018-08-23T09:15:05.051Z,27.40
2018-08-23T09:16:05.085Z,27.38
2018-08-23T09:17:05.076Z,27.40
2018-08-23T09:18:05.405Z,27.45
2018-08-23T09:19:05.130Z,27.45
2018-08-23T09:20:05.210Z,27.39
2018-08-23T09:21:05.220Z,27.39
2018-08-23T09:22:05.273Z,27.50
2018-08-23T09:23:05.274Z,27.46
2018-08-23T09:24:05.293Z,27.43
2018-08-23T09:25:05.664Z,27.45
2018-08-23T09:26:05.412Z,27.55
2018-08-23T09:27:05.455Z,27.49
2018-08-23T09:28:05.425Z,27.49
2018-08-23T09:29:05.503Z,27.50
2018-08-23T09:30:05.537Z,27.53
2018-08-23T09:31:05.579Z,27.50
2018-08-23T09:32:05.893Z,27.50
2018-08-23T09:33:05.630Z,27.50
2018-08-23T09:34:05.682Z,27.55
2018-08-23T09:35:05.716Z,27.61
2018-08-23T09:36:05.736Z,27.61
2018-08-23T09:37:05.759Z,27.50
2018-08-23T09:38:05.798Z,27.61
2018-08-23T09:40:06.167Z,27.55
2018-08-23T09:41:05.892Z,27.59
2018-08-23T09:42:05.900Z,27.63
2018-08-23T09:43:05.975Z,27.65
2018-08-23T09:44:05.995Z,27.71
2018-08-23T09:45:06.017Z,27.66
2018-08-23T09:46:06.049Z,27.69
2018-08-23T09:47:06.402Z,27.66
2018-08-23T09:48:06.118Z,27.69
2018-08-23T09:49:06.143Z,27.65
2018-08-23T09:50:06.177Z,27.69
2018-08-23T09:51:06.283Z,27.63
2018-08-23T09:52:06.195Z,27.72
2018-08-23T09:53:06.284Z,27.71
2018-08-23T09:54:06.306Z,27.68
2018-08-23T09:55:06.285Z,27.71
2018-08-23T09:56:06.320Z,27.76
2018-08-23T09:57:06.354Z,27.74
2018-08-23T09:58:06.443Z,27.76
2018-08-23T09:59:06.571Z,27.77
2018-08-23T10:00:06.802Z,27.72
2018-08-23T10:01:06.539Z,27.78
2018-08-23T10:02:06.514Z,27.78
2018-08-23T10:03:06.594Z,27.78
2018-08-23T10:04:06.633Z,27.76
2018-08-23T10:05:06.612Z,27.74
2018-08-23T10:06:06.995Z,27.77
2018-08-23T10:07:06.675Z,27.83
2018-08-23T10:08:06.760Z,27.84
2018-08-23T10:09:06.790Z,27.86
2018-08-23T10:10:06.771Z,27.84
2018-08-23T10:11:06.803Z,27.90
2018-08-23T10:12:07.136Z,27.84
2018-08-23T10:13:06.919Z,27.83
2018-08-23T10:14:06.959Z,27.87
2018-08-23T10:15:07.004Z,27.84
2018-08-23T10:16:06.964Z,27.84
2018-08-23T10:17:07.053Z,27.87
2018-08-23T10:18:07.332Z,27.88
2018-08-23T10:19:07.133Z,27.93
2018-08-23T10:20:07.147Z,27.87
2018-08-23T10:21:07.181Z,27.90
2018-08-23T10:22:07.216Z,27.95
2018-08-23T10:23:07.195Z,27.86
2018-08-23T10:24:07.277Z,27.96
2018-08-23T10:25:07.566Z,27.88
2018-08-23T10:26:07.304Z,27.88
2018-08-23T10:27:07.381Z,27.99
2018-08-23T10:28:07.372Z,27.87
2018-08-23T10:29:07.392Z,27.91
2018-08-23T10:30:07.479Z,27.87
2018-08-23T10:31:07.453Z,27.87
2018-08-23T10:32:07.849Z,27.95
2018-08-23T10:33:07.578Z,27.96
2018-08-23T10:34:07.609Z,27.91
2018-08-23T10:35:07.843Z,27.96
2018-08-23T10:36:07.679Z,27.96
2018-08-23T10:37:07.654Z,27.93
2018-08-23T10:38:07.747Z,27.96
2018-08-23T10:39:08.072Z,27.91
2018-08-23T10:40:07.806Z,27.98
2018-08-23T10:41:07.781Z,27.99
2018-08-23T10:42:07.865Z,27.91
2018-08-23T10:43:07.903Z,27.99
2018-08-23T10:44:07.922Z,27.99
2018-08-23T10:45:07.977Z,27.99
2018-08-23T10:46:08.304Z,27.93
2018-08-23T10:47:08.025Z,27.98
2018-08-23T10:48:08.010Z,27.93
2018-08-23T10:49:08.094Z,27.93
2018-08-23T10:50:08.125Z,27.98
2018-08-23T10:51:08.257Z,27.96
2018-08-23T10:52:08.206Z,28.01
2018-08-23T10:53:08.477Z,28.01
2018-08-23T10:54:08.255Z,28.05
2018-08-23T10:55:08.242Z,28.01
2018-08-23T10:56:08.280Z,28.02
2018-08-23T10:57:08.374Z,28.08
2018-08-23T10:58:08.390Z,28.03
2018-08-23T10:59:08.429Z,28.05
2018-08-23T11:00:08.404Z,28.03
2018-08-23T11:01:08.449Z,28.08
2018-08-23T11:02:08.521Z,28.05
2018-08-23T11:03:08.559Z,28.08
2018-08-23T11:04:08.539Z,28.08
2018-08-23T11:05:08.567Z,28.03
2018-08-23T11:06:08.950Z,28.03
2018-08-23T11:07:08.638Z,28.05
2018-08-23T11:08:08.724Z,28.02
2018-08-23T11:09:08.707Z,28.05
2018-08-23T11:10:08.748Z,28.06
2018-08-23T11:11:08.825Z,28.06
2018-08-23T11:12:08.799Z,28.09
2018-08-23T11:13:09.203Z,28.09
2018-08-23T11:14:08.932Z,28.11
2018-08-23T11:15:08.907Z,28.08
2018-08-23T11:16:09.048Z,28.11
2018-08-23T11:17:09.059Z,28.15
2018-08-23T11:18:09.002Z,28.15
2018-08-23T11:19:09.333Z,28.09
2018-08-23T11:20:09.066Z,28.17
2018-08-23T11:21:09.190Z,28.13
2018-08-23T11:22:09.186Z,28.13
2018-08-23T11:23:09.214Z,28.13
2018-08-23T11:24:09.244Z,28.08
2018-08-23T11:25:09.584Z,28.13
2018-08-23T11:26:09.260Z,28.20
2018-08-23T11:27:09.342Z,28.17
2018-08-23T11:28:09.351Z,28.20
2018-08-23T11:29:09.354Z,28.14
2018-08-23T11:30:09.403Z,28.14
2018-08-23T11:31:09.808Z,28.20
2018-08-23T11:32:09.522Z,28.23
2018-08-23T11:33:09.548Z,28.27
2018-08-23T11:34:09.567Z,28.21
2018-08-23T11:35:09.740Z,28.28
2018-08-23T11:36:09.671Z,28.21
2018-08-23T11:37:09.671Z,28.23
2018-08-23T11:38:09.664Z,28.24
2018-08-23T11:39:09.734Z,28.24
2018-08-23T11:40:09.836Z,28.20
2018-08-23T11:41:09.756Z,28.20
2018-08-23T11:42:10.142Z,28.24
2018-08-23T11:43:09.880Z,28.20
2018-08-23T11:44:10.200Z,28.23
2018-08-23T11:45:09.889Z,28.23
2018-08-23T11:46:09.967Z,28.23
2018-08-23T11:47:10.005Z,28.27
2018-08-23T11:48:10.031Z,28.24
2018-08-23T11:49:10.293Z,28.23
2018-08-23T11:50:10.374Z,28.32
2018-08-23T11:51:10.710Z,28.23
2018-08-23T11:52:10.415Z,28.35
2018-08-23T11:53:10.598Z,28.32
2018-08-23T11:54:10.242Z,28.30
2018-08-23T11:55:10.360Z,28.38
2018-08-23T11:56:10.299Z,28.20
2018-08-23T11:57:10.292Z,28.40
2018-08-23T11:58:10.705Z,28.30
2018-08-23T11:59:10.488Z,28.33
2018-08-23T12:00:10.435Z,28.25
2018-08-23T12:01:10.465Z,28.30
2018-08-23T12:02:10.491Z,28.25
2018-08-23T12:03:10.499Z,28.30
2018-08-23T12:04:10.565Z,28.36
2018-08-23T12:05:10.861Z,28.35
2018-08-23T12:06:10.621Z,28.33
2018-08-23T12:07:10.610Z,28.35
2018-08-23T12:08:10.687Z,28.33
2018-08-23T12:09:10.730Z,28.35
2018-08-23T12:10:10.758Z,28.40
2018-08-23T12:11:10.809Z,28.39
2018-08-23T12:12:11.135Z,28.32
2018-08-23T12:13:10.809Z,28.46
2018-08-23T12:14:10.844Z,28.52
2018-08-23T12:15:10.929Z,28.51
2018-08-23T12:16:10.993Z,28.58
2018-08-23T12:17:10.995Z,28.46
2018-08-23T12:18:11.026Z,28.52
2018-08-23T12:19:11.378Z,28.50
2018-08-23T12:20:11.101Z,28.54
2018-08-23T12:21:11.075Z,28.54
2018-08-23T12:22:11.173Z,28.57
2018-08-23T12:23:11.197Z,28.55
2018-08-23T12:24:11.185Z,28.50
2018-08-23T12:25:11.257Z,28.54
2018-08-23T12:26:11.622Z,28.55
2018-08-23T12:27:11.331Z,28.52
2018-08-23T12:28:11.377Z,28.57
2018-08-23T12:29:11.392Z,28.55
2018-08-23T12:30:11.432Z,28.61
2018-08-23T12:31:11.557Z,28.61
2018-08-23T12:32:11.453Z,28.62
2018-08-23T12:33:11.773Z,28.61
2018-08-23T12:34:11.560Z,28.64
2018-08-23T12:35:11.585Z,28.67
2018-08-23T12:36:11.633Z,28.64
2018-08-23T12:37:11.691Z,28.61
2018-08-23T12:38:11.701Z,28.67
2018-08-23T12:39:12.020Z,28.72
2018-08-23T12:40:11.719Z,28.70
2018-08-23T12:41:11.800Z,28.74
2018-08-23T12:42:11.835Z,28.69
2018-08-23T12:43:11.902Z,28.82
2018-08-23T12:44:11.898Z,28.82
2018-08-23T12:45:12.181Z,28.76
2018-08-23T12:46:11.971Z,28.80
2018-08-23T12:47:12.002Z,28.80
2018-08-23T12:49:12.075Z,28.77
2018-08-23T12:50:12.040Z,28.77
2018-08-23T12:51:12.562Z,28.77
2018-08-23T12:52:12.184Z,28.80
2018-08-23T12:53:12.234Z,28.77
2018-08-23T12:54:12.231Z,28.79
2018-08-23T12:55:12.252Z,28.79
2018-08-23T12:56:12.306Z,28.89
2018-08-23T12:57:12.325Z,28.83
2018-08-23T12:58:12.667Z,28.85
2018-08-23T12:59:12.344Z,28.87
2018-08-23T13:00:12.408Z,28.87
2018-08-23T13:01:12.498Z,28.80
2018-08-23T13:02:12.599Z,28.83
2018-08-23T13:03:12.491Z,28.91
2018-08-23T13:05:12.576Z,28.89